Time;durP1;ratioP1;P1;durP2;ratioP2;P2;SDS_P1;SDS_P2;PMS_P1;PMS_P2;Temp;Humidity;BMP_temperature;BMP_pressure;BME280_temperature;BME280_humidity;BME280_pressure;Samples;Min_cycle;Max_cycle;Signal;HPM_P1;HPM_P2
2022/09/27 00:01:59;;;;;;;61.40;18.20;;;;;;;7.20;100.00;98197.89;101248;1334;24325;-34
2022/09/27 00:04:26;;;;;;;66.90;12.30;;;;;;;7.21;100.00;98187.45;101186;1323;22707;-43
2022/09/27 00:06:52;;;;;;;427.60;150.20;;;;;;;7.21;100.00;98181.75;101217;1339;24367;-32
2022/09/27 00:09:17;;;;;;;43.10;14.90;;;;;;;7.20;100.00;98180.55;101120;1328;24363;-38
2022/09/27 00:11:43;;;;;;;48.10;16.70;;;;;;;7.19;100.00;98175.86;101220;1336;23089;-33
2022/09/27 00:14:10;;;;;;;65.40;17.30;;;;;;;7.18;100.00;98171.42;101165;1331;24836;-36
2022/09/27 00:16:37;;;;;;;43.10;13.20;;;;;;;7.17;100.00;98169.25;101236;1325;23047;-35
2022/09/27 00:19:05;;;;;;;36.20;12.20;;;;;;;7.15;100.00;98164.91;101186;1339;22631;-35
2022/09/27 00:21:31;;;;;;;557.00;279.90;;;;;;;7.13;100.00;98164.98;101259;1331;22492;-34
2022/09/27 00:23:56;;;;;;;82.60;23.80;;;;;;;7.13;100.00;98164.69;101232;1319;23349;-33
2022/09/27 00:26:22;;;;;;;36.60;12.60;;;;;;;7.11;100.00;98163.70;101059;1327;23217;-36
2022/09/27 00:28:48;;;;;;;36.40;15.00;;;;;;;7.09;100.00;98160.37;101158;1339;22993;-36
2022/09/27 00:31:19;;;;;;;50.50;13.20;;;;;;;7.06;100.00;98152.73;101133;1336;22750;-36
2022/09/27 00:33:47;;;;;;;71.30;16.30;;;;;;;7.04;100.00;98150.55;101180;1325;25337;-34
2022/09/27 00:36:13;;;;;;;118.70;16.40;;;;;;;7.00;100.00;98143.00;101128;1331;22877;-36
2022/09/27 00:38:40;;;;;;;134.50;14.80;;;;;;;6.97;100.00;98141.77;101119;1331;22706;-34
2022/09/27 00:41:05;;;;;;;94.60;14.50;;;;;;;6.94;100.00;98136.30;101208;1339;23097;-36
2022/09/27 00:43:38;;;;;;;107.30;19.20;;;;;;;6.92;100.00;98136.45;101082;1334;23349;-33
2022/09/27 00:46:03;;;;;;;52.70;13.20;;;;;;;6.89;100.00;98131.20;101141;1339;22519;-33
2022/09/27 00:48:30;;;;;;;41.20;14.80;;;;;;;6.86;100.00;98128.04;101231;1324;25451;-32
2022/09/27 00:50:58;;;;;;;191.50;77.50;;;;;;;6.83;100.00;98129.52;100794;1325;499467;-37
2022/09/27 00:53:27;;;;;;;97.60;15.50;;;;;;;6.79;100.00;98126.59;101052;1328;22757;-33
2022/09/27 00:55:55;;;;;;;54.60;16.60;;;;;;;6.75;100.00;98120.63;101166;1333;24363;-33
2022/09/27 00:58:23;;;;;;;20.20;12.40;;;;;;;6.72;100.00;98115.21;101163;1333;23034;-33
2022/09/27 01:00:51;;;;;;;96.80;51.10;;;;;;;6.69;100.00;98112.09;101068;1339;23017;-33
2022/09/27 01:03:23;;;;;;;29.30;17.00;;;;;;;6.66;100.00;98106.62;101180;1334;22797;-35
2022/09/27 01:05:49;;;;;;;27.30;16.90;;;;;;;6.63;100.00;98103.26;101157;1339;22615;-36
2022/09/27 01:08:14;;;;;;;30.70;15.20;;;;;;;6.62;100.00;98099.52;101109;1335;22754;-37
2022/09/27 01:10:48;;;;;;;25.40;16.70;;;;;;;6.61;100.00;98097.23;101147;1336;23316;-35
2022/09/27 01:13:19;;;;;;;29.90;15.40;;;;;;;6.59;100.00;98096.15;101171;1334;23204;-36
2022/09/27 01:15:52;;;;;;;34.00;18.90;;;;;;;6.57;100.00;98088.80;101263;1331;23106;-39
2022/09/27 01:18:22;;;;;;;35.00;17.20;;;;;;;6.55;100.00;98085.59;101134;1328;22754;-35
2022/09/27 01:20:55;;;;;;;29.40;9.30;;;;;;;6.55;100.00;98086.20;101147;1335;24462;-32
2022/09/27 01:23:25;;;;;;;29.50;16.50;;;;;;;6.52;100.00;98077.84;101150;1332;25369;-35
2022/09/27 01:25:58;;;;;;;34.20;17.80;;;;;;;6.50;100.00;98072.59;101149;1339;23382;-35
2022/09/27 01:28:35;;;;;;;39.70;21.70;;;;;;;6.50;100.00;98065.77;101193;1336;22865;-33
2022/09/27 01:31:03;;;;;;;35.10;19.00;;;;;;;6.50;100.00;98057.27;101061;1327;22895;-32
2022/09/27 01:33:33;;;;;;;37.90;22.70;;;;;;;6.50;100.00;98052.20;101159;1325;23210;-35
2022/09/27 01:36:05;;;;;;;38.50;21.80;;;;;;;6.50;100.00;98048.46;101146;1336;23335;-36
2022/09/27 01:38:33;;;;;;;44.20;21.30;;;;;;;6.49;100.00;98046.58;101174;1334;24409;-37
2022/09/27 01:41:05;;;;;;;83.70;40.00;;;;;;;6.50;100.00;98040.05;101120;1336;24372;-32
2022/09/27 01:43:33;;;;;;;;;;;;;;;6.51;100.00;98040.33;101231;1325;22748;-33
2022/09/27 01:46:05;;;;;;;211.90;73.20;;;;;;;6.50;100.00;98038.29;101138;1317;24337;-36
2022/09/27 01:48:33;;;;;;;69.30;28.20;;;;;;;6.51;100.00;98037.50;101137;1325;23080;-33
2022/09/27 01:51:03;;;;;;;56.70;27.90;;;;;;;6.50;100.00;98039.71;101162;1331;23103;-35
2022/09/27 01:53:32;;;;;;;44.70;22.80;;;;;;;6.51;100.00;98041.60;101138;1325;22853;-33
2022/09/27 01:55:57;;;;;;;76.90;34.80;;;;;;;6.48;100.00;98037.16;101152;1336;24327;-35
2022/09/27 01:58:27;;;;;;;46.30;25.50;;;;;;;6.46;100.00;98035.60;101160;1333;25331;-32
2022/09/27 02:00:53;;;;;;;46.60;21.00;;;;;;;6.44;100.00;98036.95;101032;1336;22708;-35
2022/09/27 02:03:24;;;;;;;52.50;22.30;;;;;;;6.41;100.00;98035.48;101185;1336;22764;-35
2022/09/27 02:05:52;;;;;;;38.50;21.10;;;;;;;6.37;100.00;98032.31;101162;1334;23219;-32
2022/09/27 02:08:25;;;;;;;46.50;25.50;;;;;;;6.34;100.00;98030.21;101166;1334;22866;-38
2022/09/27 02:10:51;;;;;;;49.20;25.10;;;;;;;6.30;100.00;98030.66;101064;1336;22516;-38
2022/09/27 02:13:21;;;;;;;47.60;27.70;;;;;;;6.28;100.00;98029.72;101101;1334;24542;-35
2022/09/27 02:15:55;;;;;;;57.30;23.70;;;;;;;6.27;100.00;98034.31;101138;1318;22880;-33
2022/09/27 02:18:28;;;;;;;48.10;24.20;;;;;;;6.28;100.00;98034.71;101176;1336;24398;-33
2022/09/27 02:20:56;;;;;;;46.70;23.50;;;;;;;6.28;100.00;98037.92;101099;1331;23097;-33
2022/09/27 02:23:24;;;;;;;51.00;26.10;;;;;;;6.28;100.00;98037.67;101168;1325;23107;-33
2022/09/27 02:25:53;;;;;;;55.70;26.60;;;;;;;6.28;100.00;98034.59;101162;1335;23092;-36
2022/09/27 02:28:24;;;;;;;39.70;24.10;;;;;;;6.29;100.00;98033.85;101169;1334;24361;-33
2022/09/27 02:30:50;;;;;;;32.80;20.90;;;;;;;6.29;100.00;98032.34;101116;1327;22875;-36
2022/09/27 02:33:18;;;;;;;59.10;27.20;;;;;;;6.30;100.00;98026.60;101159;1327;22899;-37
2022/09/27 02:35:45;;;;;;;44.20;23.60;;;;;;;6.29;100.00;98020.98;101262;1324;22895;-37
2022/09/27 02:38:10;;;;;;;42.40;23.10;;;;;;;6.30;100.00;98019.34;101173;1336;22741;-32
2022/09/27 02:40:43;;;;;;;63.00;30.80;;;;;;;6.30;100.00;98019.30;101107;1336;23157;-32
2022/09/27 02:43:09;;;;;;;59.60;26.10;;;;;;;6.29;100.00;98017.23;101204;1318;22653;-33
2022/09/27 02:45:43;;;;;;;50.30;23.30;;;;;;;6.29;100.00;98016.42;101142;1326;24475;-35
2022/09/27 02:48:14;;;;;;;58.00;20.20;;;;;;;6.27;100.00;98019.34;101159;1334;22608;-33
2022/09/27 02:50:47;;;;;;;41.30;22.40;;;;;;;6.26;100.00;98020.52;101164;1325;22827;-33
2022/09/27 02:53:19;;;;;;;53.80;22.40;;;;;;;6.24;100.00;98015.68;101182;1336;25349;-36
2022/09/27 02:55:50;;;;;;;46.50;23.80;;;;;;;6.21;100.00;98015.10;101093;1336;22639;-33
2022/09/27 02:58:33;;;;;;;48.50;23.80;;;;;;;6.19;100.00;98014.15;101106;1336;23906;-36
2022/09/27 03:01:11;;;;;;;52.60;28.40;;;;;;;6.18;100.00;98017.39;101113;1334;22840;-37
2022/09/27 03:03:44;;;;;;;50.80;23.00;;;;;;;6.17;100.00;98016.07;101065;1334;22741;-33
2022/09/27 03:06:10;;;;;;;53.50;27.90;;;;;;;6.18;100.00;98015.26;101217;1328;25366;-33
2022/09/27 03:08:37;;;;;;;47.40;25.20;;;;;;;6.17;100.00;98010.13;101075;1336;22752;-33
2022/09/27 03:11:03;;;;;;;64.00;29.70;;;;;;;6.19;100.00;98009.92;101197;1336;24427;-33
2022/09/27 03:13:28;;;;;;;61.10;29.00;;;;;;;6.19;100.00;98005.50;101213;1334;22873;-35
2022/09/27 03:15:54;;;;;;;69.80;35.60;;;;;;;6.18;100.00;97993.32;101242;1334;22935;-34
2022/09/27 03:18:19;;;;;;;65.20;31.50;;;;;;;6.17;100.00;97990.11;101150;1325;24363;-36
2022/09/27 03:20:45;;;;;;;49.10;24.50;;;;;;;6.16;100.00;97987.28;101024;1336;22520;-36
2022/09/27 03:23:11;;;;;;;61.80;31.10;;;;;;;6.14;100.00;97982.23;101163;1326;25422;-33
2022/09/27 03:25:36;;;;;;;37.30;19.90;;;;;;;6.12;100.00;97979.80;101029;1328;24285;-36
2022/09/27 03:28:02;;;;;;;57.70;28.40;;;;;;;6.11;100.00;97979.41;101208;1335;22504;-36
2022/09/27 03:30:27;;;;;;;52.20;26.90;;;;;;;6.10;100.00;97983.04;101073;1334;23476;-33
2022/09/27 03:32:52;;;;;;;61.00;29.20;;;;;;;6.10;100.00;97980.21;101116;1334;24452;-35
2022/09/27 03:35:18;;;;;;;64.10;31.00;;;;;;;6.10;100.00;97976.94;101159;1327;24462;-35
2022/09/27 03:37:43;;;;;;;49.40;24.00;;;;;;;6.11;100.00;97980.65;101111;1336;22752;-36
2022/09/27 03:40:09;;;;;;;65.60;29.80;;;;;;;6.11;100.00;97981.09;101128;1328;23095;-36
2022/09/27 03:42:35;;;;;;;72.00;26.90;;;;;;;6.11;100.00;97979.41;101051;1334;22875;-33
2022/09/27 03:45:00;;;;;;;51.00;27.60;;;;;;;6.08;100.00;97972.42;101244;1335;24372;-35
2022/09/27 03:47:26;;;;;;;57.90;28.50;;;;;;;6.06;100.00;97970.88;101015;1336;22774;-36
2022/09/27 03:49:52;;;;;;;67.60;32.50;;;;;;;6.06;100.00;97967.34;101146;1325;22484;-33
2022/09/27 03:52:17;;;;;;;66.00;29.90;;;;;;;6.07;100.00;97967.26;101039;1334;23132;-38
2022/09/27 03:54:44;;;;;;;76.60;34.40;;;;;;;6.04;100.00;97958.02;100837;1335;23207;-37
2022/09/27 03:57:10;;;;;;;42.70;23.00;;;;;;;6.03;100.00;97957.40;101162;1327;23232;-34
2022/09/27 03:59:35;;;;;;;70.30;28.40;;;;;;;6.03;100.00;97958.03;101154;1333;23013;-34
2022/09/27 04:02:02;;;;;;;78.20;37.10;;;;;;;6.00;100.00;97953.73;101060;1333;24373;-34
2022/09/27 04:04:28;;;;;;;62.90;31.40;;;;;;;5.99;100.00;97950.55;101151;1327;26479;-37
2022/09/27 04:06:53;;;;;;;55.50;29.40;;;;;;;5.99;100.00;97948.10;101154;1328;24567;-34
2022/09/27 04:09:19;;;;;;;67.90;29.90;;;;;;;5.97;100.00;97943.84;101117;1336;24562;-37
2022/09/27 04:11:44;;;;;;;63.20;28.50;;;;;;;5.98;100.00;97944.21;101163;1333;22490;-37
2022/09/27 04:14:11;;;;;;;63.10;30.10;;;;;;;6.00;100.00;97945.11;101142;1325;22852;-34
2022/09/27 04:16:39;;;;;;;69.40;33.60;;;;;;;6.01;100.00;97946.34;101142;1325;22749;-33
2022/09/27 04:19:06;;;;;;;61.80;31.00;;;;;;;6.01;100.00;97946.55;101263;1334;22509;-34
2022/09/27 04:21:32;;;;;;;50.90;25.40;;;;;;;6.02;100.00;97943.91;101206;1332;22744;-34
2022/09/27 04:23:58;;;;;;;71.20;34.30;;;;;;;6.04;100.00;97948.67;101154;1336;25377;-35
2022/09/27 04:26:24;;;;;;;60.10;29.00;;;;;;;6.02;100.00;97949.05;101205;1327;23226;-33
2022/09/27 04:28:51;;;;;;;71.00;30.00;;;;;;;6.04;100.00;97951.70;101034;1334;22487;-33
2022/09/27 04:31:18;;;;;;;69.10;33.80;;;;;;;6.05;100.00;97951.09;101143;1334;22716;-33
2022/09/27 04:33:43;;;;;;;67.50;27.20;;;;;;;6.10;100.00;97950.70;101105;1334;23213;-35
2022/09/27 04:38:43;;;;;;;57.70;26.40;;;;;;;6.17;100.00;97961.56;101201;1324;24408;-35
2022/09/27 04:41:09;;;;;;;68.30;34.40;;;;;;;6.18;100.00;97957.15;101050;1336;22887;-35
2022/09/27 04:43:35;;;;;;;53.50;28.80;;;;;;;6.18;100.00;97954.92;101181;1333;23116;-36
2022/09/27 04:46:00;;;;;;;69.50;29.10;;;;;;;6.20;100.00;97952.58;101289;1334;22877;-34
2022/09/27 04:48:25;;;;;;;47.70;24.10;;;;;;;6.20;100.00;97954.81;101089;1336;22636;-36
2022/09/27 04:50:56;;;;;;;50.40;26.20;;;;;;;6.22;100.00;97954.56;101013;1336;24802;-34
2022/09/27 04:53:21;;;;;;;66.20;31.20;;;;;;;6.26;100.00;97947.47;101225;1335;23223;-34
2022/09/27 04:55:48;;;;;;;62.20;29.00;;;;;;;6.32;100.00;97952.67;101111;1323;22774;-34
2022/09/27 04:58:14;;;;;;;53.00;26.80;;;;;;;6.38;100.00;97953.17;101142;1336;22624;-34
2022/09/27 05:00:42;;;;;;;72.20;31.70;;;;;;;6.41;100.00;97956.33;101244;1334;22497;-34
2022/09/27 05:03:07;;;;;;;58.40;28.40;;;;;;;6.45;100.00;97953.88;101155;1325;24294;-34
2022/09/27 05:05:33;;;;;;;60.50;28.80;;;;;;;6.48;100.00;97947.35;101229;1324;23049;-36
2022/09/27 05:07:59;;;;;;;58.40;26.50;;;;;;;6.53;100.00;97945.78;101194;1334;23229;-36
2022/09/27 05:10:24;;;;;;;57.00;27.10;;;;;;;6.61;100.00;97948.58;101138;1335;22896;-33
2022/09/27 05:12:50;;;;;;;63.80;31.10;;;;;;;6.68;100.00;97956.66;101108;1336;22642;-33
2022/09/27 05:15:15;;;;;;;50.60;24.40;;;;;;;6.75;100.00;97955.69;101124;1334;23061;-36
2022/09/27 05:17:41;;;;;;;45.40;22.80;;;;;;;6.83;100.00;97953.38;101213;1336;22742;-33
2022/09/27 05:20:08;;;;;;;68.40;30.80;;;;;;;6.92;100.00;97955.24;101166;1330;23277;-36
2022/09/27 05:22:34;;;;;;;49.80;23.00;;;;;;;7.03;100.00;97960.40;100911;1333;26641;-34
2022/09/27 05:24:59;;;;;;;49.90;23.80;;;;;;;7.16;100.00;97963.58;101158;1327;24269;-34
2022/09/27 05:27:25;;;;;;;51.60;27.70;;;;;;;7.29;100.00;97963.46;101136;1334;24834;-36
2022/09/27 05:29:50;;;;;;;59.70;26.60;;;;;;;7.40;100.00;97966.38;101187;1323;22700;-33
2022/09/27 05:38:01;;;;;;;36.90;21.00;;;;;;;7.72;100.00;97973.02;100184;1344;544891;-34
2022/09/27 05:40:28;;;;;;;26.10;16.80;;;;;;;7.79;100.00;97984.91;100452;1338;22764;-34
2022/09/27 05:42:54;;;;;;;33.60;19.20;;;;;;;7.90;100.00;97981.48;100386;1343;22752;-32
2022/09/27 05:45:21;;;;;;;45.60;24.30;;;;;;;7.98;100.00;97980.94;100346;1352;24876;-34
2022/09/27 05:47:51;;;;;;;45.80;22.30;;;;;;;8.05;100.00;97977.07;100418;1346;23017;-37
2022/09/27 05:50:17;;;;;;;30.00;19.30;;;;;;;8.13;100.00;97973.89;100391;1343;22911;-35
2022/09/27 05:52:42;;;;;;;37.90;22.00;;;;;;;8.21;100.00;97966.88;100238;1340;361476;-37
2022/09/27 05:55:08;;;;;;;37.00;21.00;;;;;;;8.28;100.00;97962.31;100550;1342;22765;-35
2022/09/27 05:57:34;;;;;;;39.70;22.90;;;;;;;8.39;100.00;97961.69;100503;1346;22625;-37
2022/09/27 05:59:59;;;;;;;43.00;23.60;;;;;;;8.46;100.00;97956.58;100528;1344;22760;-35
2022/09/27 06:02:25;;;;;;;27.50;18.10;;;;;;;8.57;100.00;97953.02;100549;1331;22751;-35
2022/09/27 06:04:53;;;;;;;28.80;18.30;;;;;;;8.64;100.00;97943.64;100635;1334;22752;-35
2022/09/27 06:07:19;;;;;;;43.90;24.70;;;;;;;8.68;100.00;97938.80;100479;1341;22745;-36
2022/09/27 06:09:44;;;;;;;34.40;19.00;;;;;;;8.72;100.00;97930.89;100548;1334;23112;-35
2022/09/27 06:12:10;;;;;;;38.20;23.00;;;;;;;8.77;100.00;97931.42;100493;1343;23090;-37
2022/09/27 06:14:37;;;;;;;34.30;22.10;;;;;;;8.80;100.00;97931.14;100545;1333;22888;-35
2022/09/27 06:17:03;;;;;;;28.70;18.90;;;;;;;8.82;100.00;97928.58;100560;1343;22748;-35
2022/09/27 06:19:29;;;;;;;30.70;18.20;;;;;;;8.84;100.00;97924.96;100604;1347;22516;-35
2022/09/27 06:21:54;;;;;;;37.70;22.20;;;;;;;8.88;100.00;97924.27;100567;1343;22902;-37
2022/09/27 06:24:20;;;;;;;28.40;17.00;;;;;;;8.93;100.00;97927.40;100575;1348;22888;-37
2022/09/27 06:26:46;;;;;;;24.20;16.00;;;;;;;8.96;100.00;97922.35;100555;1342;22524;-34
2022/09/27 06:29:11;;;;;;;33.20;19.10;;;;;;;8.96;100.00;97917.92;100590;1340;23099;-34
2022/09/27 06:31:37;;;;;;;28.00;17.80;;;;;;;8.99;100.00;97913.55;100590;1338;24487;-37
2022/09/27 06:34:03;;;;;;;34.30;20.80;;;;;;;9.00;100.00;97909.67;100582;1343;22745;-37
2022/09/27 06:36:28;;;;;;;36.30;18.50;;;;;;;9.05;100.00;97911.70;100564;1342;22871;-36
2022/09/27 06:38:53;;;;;;;33.90;22.80;;;;;;;9.07;100.00;97910.59;100577;1342;22878;-37
2022/09/27 06:41:19;;;;;;;31.30;18.70;;;;;;;9.11;100.00;97910.47;100619;1348;23219;-37
2022/09/27 06:43:47;;;;;;;30.30;17.30;;;;;;;9.18;100.00;97912.40;100549;1342;23016;-37
2022/09/27 06:46:12;;;;;;;17.00;13.00;;;;;;;9.25;100.00;97909.00;100577;1342;24278;-34
2022/09/27 06:48:38;;;;;;;31.50;18.50;;;;;;;9.32;100.00;97904.33;100552;1343;24464;-34
2022/09/27 06:51:04;;;;;;;31.70;16.00;;;;;;;9.41;100.00;97902.08;100605;1343;23475;-34
2022/09/27 06:53:30;;;;;;;42.20;24.10;;;;;;;9.49;100.00;97904.20;100586;1347;22893;-35
2022/09/27 06:55:59;;;;;;;38.60;19.30;;;;;;;9.56;100.00;97893.59;100592;1346;22507;-33
2022/09/27 07:01:10;;;;;;;30.20;19.00;;;;;;;9.67;100.00;97881.98;100561;1335;22715;-37
2022/09/27 07:03:40;;;;;;;30.00;20.90;;;;;;;9.71;100.00;97878.05;100573;1334;24491;-34
2022/09/27 07:06:06;;;;;;;25.00;16.20;;;;;;;9.75;100.00;97872.91;100543;1340;24258;-37
2022/09/27 07:08:34;;;;;;;29.00;19.50;;;;;;;9.79;100.00;97869.42;100572;1347;24405;-42
2022/09/27 07:11:02;;;;;;;25.70;17.80;;;;;;;9.89;100.00;97865.48;100538;1344;22770;-37
2022/09/27 07:13:30;;;;;;;26.30;16.30;;;;;;;9.95;100.00;97864.65;100533;1342;22755;-37
2022/09/27 07:15:55;;;;;;;28.10;19.20;;;;;;;10.00;100.00;97853.21;100581;1338;23231;-37
2022/09/27 07:18:21;;;;;;;29.40;14.60;;;;;;;10.11;100.00;97845.36;100601;1349;24335;-34
2022/09/27 07:20:47;;;;;;;30.80;16.50;;;;;;;10.17;100.00;97847.45;100504;1342;22890;-35
2022/09/27 07:23:13;;;;;;;27.50;16.70;;;;;;;10.28;100.00;97855.35;100557;1344;22443;-35
2022/09/27 07:25:38;;;;;;;27.30;15.20;;;;;;;10.36;100.00;97846.21;100563;1337;22709;-35
2022/09/27 07:28:05;;;;;;;36.60;21.40;;;;;;;10.40;100.00;97842.23;100651;1340;22613;-38
2022/09/27 07:30:32;;;;;;;19.70;14.90;;;;;;;10.49;100.00;97834.38;100701;1341;23531;-36
2022/09/27 07:32:59;;;;;;;27.10;17.70;;;;;;;10.59;100.00;97832.88;100694;1345;22770;-35
2022/09/27 07:35:26;;;;;;;18.90;13.60;;;;;;;10.68;100.00;97830.66;100598;1345;24457;-38
2022/09/27 07:37:51;;;;;;;22.30;12.60;;;;;;;10.75;100.00;97826.55;100552;1346;22978;-35
2022/09/27 07:40:18;;;;;;;29.80;13.90;;;;;;;10.89;100.00;97827.18;100662;1331;24294;-35
2022/09/27 07:42:43;;;;;;;22.60;13.90;;;;;;;11.04;100.00;97821.99;100569;1342;22887;-37
2022/09/27 07:45:10;;;;;;;15.10;12.20;;;;;;;11.21;100.00;97820.29;100690;1329;22494;-39
2022/09/27 07:47:40;;;;;;;13.70;10.20;;;;;;;11.30;100.00;97806.91;100674;1337;23261;-35
2022/09/27 07:50:08;;;;;;;15.70;12.10;;;;;;;11.43;100.00;97793.06;100551;1345;24561;-35
2022/09/27 07:52:38;;;;;;;18.40;13.10;;;;;;;11.59;100.00;97802.08;100721;1343;22818;-37
2022/09/27 07:55:04;;;;;;;12.20;9.20;;;;;;;11.69;100.00;97794.33;100692;1335;22894;-35
2022/09/27 07:57:29;;;;;;;15.30;11.40;;;;;;;11.74;100.00;97778.61;100729;1343;22748;-37
2022/09/27 07:59:55;;;;;;;12.10;9.10;;;;;;;11.83;100.00;97761.98;100775;1342;23112;-37
2022/09/27 08:02:20;;;;;;;17.50;10.40;;;;;;;11.88;100.00;97762.88;100687;1333;23258;-37
2022/09/27 08:04:46;;;;;;;16.50;9.20;;;;;;;11.98;100.00;97757.59;100658;1342;23205;-35
2022/09/27 08:07:12;;;;;;;10.90;8.20;;;;;;;12.08;100.00;97751.45;100414;1346;22501;-35
2022/09/27 08:09:37;;;;;;;13.90;10.10;;;;;;;12.21;100.00;97754.94;100678;1341;24166;-39
2022/09/27 08:12:03;;;;;;;8.20;5.90;;;;;;;12.33;100.00;97754.88;100505;1337;23222;-38
2022/09/27 08:14:30;;;;;;;11.40;9.40;;;;;;;12.39;100.00;97747.65;100640;1342;23239;-38
2022/09/27 08:16:55;;;;;;;8.00;6.60;;;;;;;12.46;100.00;97744.08;100706;1343;22498;-35
2022/09/27 08:19:21;;;;;;;6.90;5.90;;;;;;;12.54;100.00;97738.05;100648;1341;22748;-35
2022/09/27 08:21:46;;;;;;;13.30;9.00;;;;;;;12.64;100.00;97734.02;100574;1339;22968;-35
2022/09/27 08:24:12;;;;;;;11.70;7.20;;;;;;;12.75;100.00;97726.48;100641;1342;24282;-37
2022/09/27 08:26:38;;;;;;;8.00;7.10;;;;;;;12.84;100.00;97726.88;100504;1345;22744;-35
2022/09/27 08:29:04;;;;;;;8.60;7.00;;;;;;;12.96;100.00;97715.67;100741;1337;23066;-35
2022/09/27 08:31:29;;;;;;;9.50;7.20;;;;;;;13.07;100.00;97710.52;100475;1342;24696;-34
2022/09/27 08:33:56;;;;;;;10.70;8.60;;;;;;;13.20;100.00;97716.14;100671;1342;22585;-37
2022/09/27 08:36:23;;;;;;;13.00;8.60;;;;;;;13.31;100.00;97718.17;100525;1343;22887;-38
2022/09/27 08:38:49;;;;;;;9.20;7.70;;;;;;;13.41;100.00;97719.39;100529;1318;23564;-36
2022/09/27 08:41:26;;;;;;;7.80;5.20;;;;;;;13.49;100.00;97715.20;100663;1337;22505;-34
2022/09/27 08:44:03;;;;;;;16.40;7.50;;;;;;;13.55;100.00;97711.43;100684;1331;24338;-34
2022/09/27 08:46:37;;;;;;;11.20;5.80;;;;;;;13.60;100.00;97709.15;100651;1343;24369;-34
2022/09/27 08:49:05;;;;;;;;;;;;;;;13.64;100.00;97709.17;100693;1342;25438;-33
2022/09/27 08:51:31;;;;;;;10.70;5.50;;;;;;;13.69;100.00;97703.45;100629;1340;24437;-36
2022/09/27 08:54:03;;;;;;;10.20;6.90;;;;;;;13.79;100.00;97704.48;100599;1337;23248;-36
2022/09/27 08:56:28;;;;;;;21.80;6.70;;;;;;;13.91;100.00;97699.77;100703;1337;25299;-37
2022/09/27 08:58:57;;;;;;;10.20;7.60;;;;;;;13.94;100.00;97693.21;100647;1337;22511;-36
2022/09/27 09:01:23;;;;;;;4.10;3.60;;;;;;;14.01;100.00;97692.71;100629;1342;22770;-34
2022/09/27 09:03:54;;;;;;;7.00;5.50;;;;;;;14.11;100.00;97695.53;100706;1342;22865;-34
2022/09/27 09:06:26;;;;;;;11.60;7.10;;;;;;;14.26;100.00;97694.97;100687;1341;25234;-34
2022/09/27 09:08:57;;;;;;;9.30;6.40;;;;;;;14.30;100.00;97690.02;100659;1341;23217;-34
2022/09/27 09:14:07;;;;;;;8.30;7.40;;;;;;;14.58;100.00;97686.02;100620;1330;22979;-34
2022/09/27 09:16:37;;;;;;;9.40;6.00;;;;;;;14.66;100.00;97685.81;100666;1345;22748;-34
2022/09/27 09:19:11;;;;;;;6.00;4.40;;;;;;;14.80;100.00;97680.90;100630;1341;22876;-34
2022/09/27 09:21:52;;;;;;;12.40;6.40;;;;;;;14.95;100.00;97676.67;100614;1341;24456;-37
2022/09/27 09:24:40;;;;;;;12.10;7.50;;;;;;;15.19;100.00;97673.86;100617;1334;24524;-37
2022/09/27 09:27:13;;;;;;;9.30;6.10;;;;;;;15.31;100.00;97672.52;100627;1342;24319;-34
2022/09/27 09:29:50;;;;;;;7.80;5.40;;;;;;;15.47;99.96;97668.63;100647;1342;22581;-34
2022/09/27 09:32:38;;;;;;;11.30;6.20;;;;;;;15.57;99.46;97664.17;100683;1332;22755;-35
2022/09/27 09:35:06;;;;;;;8.10;5.60;;;;;;;15.81;99.41;97663.05;100636;1341;22754;-34
2022/09/27 09:37:37;;;;;;;10.80;6.10;;;;;;;15.91;98.11;97662.44;100580;1341;22762;-34
2022/09/27 09:40:14;;;;;;;5.30;4.40;;;;;;;15.95;95.55;97657.45;100633;1342;24321;-36
2022/09/27 09:42:44;;;;;;;6.00;5.30;;;;;;;16.02;94.90;97654.30;100649;1342;25327;-34
2022/09/27 09:45:15;;;;;;;5.10;4.20;;;;;;;16.08;94.08;97651.63;100596;1334;22751;-34
2022/09/27 09:47:44;;;;;;;6.00;5.20;;;;;;;16.10;93.32;97650.59;100660;1329;22508;-34
2022/09/27 09:50:18;;;;;;;6.00;5.30;;;;;;;16.01;92.30;97645.90;100670;1342;22771;-37
2022/09/27 09:52:49;;;;;;;8.30;5.10;;;;;;;15.99;93.51;97648.14;100655;1334;22895;-34
2022/09/27 09:55:19;;;;;;;7.40;6.30;;;;;;;16.07;94.01;97642.64;100676;1340;22514;-34
2022/09/27 09:57:52;;;;;;;7.10;6.30;;;;;;;16.13;93.60;97644.46;100592;1341;22745;-35
2022/09/27 10:00:18;;;;;;;6.40;4.60;;;;;;;16.23;94.45;97643.52;100548;1342;23206;-34
2022/09/27 10:02:45;;;;;;;5.80;4.80;;;;;;;16.19;91.70;97639.36;100648;1340;24474;-37
2022/09/27 10:05:12;;;;;;;;;;;;;;;16.24;91.50;97634.63;100649;1335;22785;-37
2022/09/27 10:07:37;;;;;;;6.20;4.50;;;;;;;16.21;90.82;97632.89;100662;1341;26140;-37
2022/09/27 10:10:04;;;;;;;9.60;5.80;;;;;;;16.25;90.43;97629.58;100707;1337;22739;-37
2022/09/27 10:12:29;;;;;;;5.30;4.00;;;;;;;16.21;90.21;97631.22;100635;1335;22914;-35
2022/09/27 10:14:57;;;;;;;5.90;4.60;;;;;;;16.35;90.39;97626.61;100641;1340;23089;-37
2022/09/27 10:17:25;;;;;;;5.90;5.30;;;;;;;16.28;90.32;97627.55;100672;1342;23103;-37
2022/09/27 10:19:53;;;;;;;3.90;3.50;;;;;;;16.29;89.95;97632.98;100607;1342;22761;-34
2022/09/27 10:22:24;;;;;;;3.80;3.20;;;;;;;16.23;90.28;97623.84;100672;1340;23338;-34
2022/09/27 10:24:56;;;;;;;3.70;3.40;;;;;;;16.17;90.32;97624.69;100598;1340;22760;-36
2022/09/27 10:27:24;;;;;;;6.00;5.00;;;;;;;16.10;90.43;97628.76;100655;1342;24397;-34
2022/09/27 10:29:56;;;;;;;3.40;2.90;;;;;;;15.94;91.24;97627.89;100621;1335;23101;-36
2022/09/27 10:32:26;;;;;;;10.30;4.00;;;;;;;15.56;92.73;97633.29;100701;1341;23135;-36
2022/09/27 10:34:51;;;;;;;7.00;5.40;;;;;;;14.91;95.93;97639.77;100650;1334;25326;-34
2022/09/27 10:37:19;;;;;;;5.00;4.10;;;;;;;14.29;99.48;97643.73;100625;1341;25400;-37
2022/09/27 10:39:47;;;;;;;8.90;5.40;;;;;;;13.77;100.00;97646.63;100662;1340;24329;-33
2022/09/27 10:42:19;;;;;;;8.30;6.60;;;;;;;13.42;100.00;97645.90;100580;1342;24298;-34
2022/09/27 10:44:44;;;;;;;9.90;6.30;;;;;;;13.16;100.00;97646.19;100457;1342;22514;-35
2022/09/27 10:47:12;;;;;;;14.90;7.70;;;;;;;13.05;100.00;97648.77;100673;1324;23322;-35
2022/09/27 10:49:39;;;;;;;12.80;9.80;;;;;;;12.93;100.00;97642.14;100680;1342;25992;-38
2022/09/27 10:52:08;;;;;;;9.50;7.20;;;;;;;12.77;100.00;97641.17;100555;1334;22819;-35
2022/09/27 10:54:35;;;;;;;20.30;15.80;;;;;;;12.57;100.00;97645.48;100499;1334;23381;-37
2022/09/27 10:57:00;;;;;;;8.90;8.00;;;;;;;12.58;100.00;97647.33;100693;1333;22751;-37
2022/09/27 10:59:29;;;;;;;8.20;6.30;;;;;;;12.54;100.00;97652.63;100501;1341;22843;-36
2022/09/27 11:01:54;;;;;;;12.30;8.90;;;;;;;12.61;100.00;97656.95;100637;1340;24281;-38
2022/09/27 11:04:23;;;;;;;;;;;;;;;12.62;100.00;97659.98;100709;1335;24373;-37
2022/09/27 11:06:49;;;;;;;10.30;8.50;;;;;;;12.59;100.00;97658.23;100703;1335;23050;-38
2022/09/27 11:09:22;;;;;;;12.40;10.30;;;;;;;12.57;100.00;97664.19;100635;1324;22893;-34
2022/09/27 11:11:47;;;;;;;9.80;8.10;;;;;;;12.68;100.00;97664.30;100619;1335;22761;-39
2022/09/27 11:14:18;;;;;;;12.60;9.70;;;;;;;12.73;100.00;97667.20;100645;1341;24309;-36
2022/09/27 11:16:47;;;;;;;10.60;7.70;;;;;;;12.84;100.00;97665.17;100689;1341;25385;-40
2022/09/27 11:19:35;;;;;;;17.50;12.70;;;;;;;12.93;100.00;97662.58;100529;1342;22875;-38
2022/09/27 11:22:02;;;;;;;13.60;12.20;;;;;;;12.98;100.00;97665.00;100646;1341;22748;-39
2022/09/27 11:24:33;;;;;;;28.60;20.10;;;;;;;12.90;100.00;97662.66;100649;1342;22875;-39
2022/09/27 11:27:06;;;;;;;24.20;19.10;;;;;;;12.85;100.00;97667.83;100673;1334;23098;-36
2022/09/27 11:29:35;;;;;;;;;;;;;;;12.88;100.00;97663.39;100648;1340;23098;-33